Time;durP1;ratioP1;P1;durP2;ratioP2;P2;SDS_P1;SDS_P2;PMS_P1;PMS_P2;Temp;Humidity;BMP_temperature;BMP_pressure;BME280_temperature;BME280_humidity;BME280_pressure;Samples;Min_cycle;Max_cycle;Signal;HPM_P1;HPM_P2
2022/10/06 00:01:13;;;;;;;5.03;3.15;;;17.60;97.80;;;;;;5047201;28;20045;-73
2022/10/06 00:03:42;;;;;;;5.60;3.60;;;17.60;98.00;;;;;;5033931;28;20395;-72
2022/10/06 00:06:12;;;;;;;4.63;3.08;;;17.60;98.00;;;;;;5057252;28;20135;-74
2022/10/06 00:08:41;;;;;;;4.53;3.20;;;17.60;98.10;;;;;;5071277;28;20040;-73
2022/10/06 00:11:11;;;;;;;5.22;3.13;;;17.60;98.10;;;;;;5030481;28;20036;-72
2022/10/06 00:13:39;;;;;;;5.45;3.40;;;17.70;98.30;;;;;;5036622;28;20043;-73
2022/10/06 00:16:13;;;;;;;4.30;3.55;;;17.60;98.30;;;;;;5013421;28;20132;-73
2022/10/06 00:18:41;;;;;;;4.65;2.75;;;17.70;98.50;;;;;;5033471;28;20048;-74
2022/10/06 00:21:09;;;;;;;5.20;2.45;;;17.70;98.60;;;;;;5047158;28;21797;-73
2022/10/06 00:23:36;;;;;;;4.50;2.92;;;17.70;98.60;;;;;;5066441;28;20047;-73
2022/10/06 00:26:04;;;;;;;4.90;3.35;;;17.70;98.70;;;;;;5051676;28;20410;-72
2022/10/06 00:28:32;;;;;;;5.00;2.72;;;17.70;98.60;;;;;;5049880;28;20402;-75
2022/10/06 00:31:01;;;;;;;4.47;3.17;;;17.70;98.60;;;;;;5051152;28;20060;-73
2022/10/06 00:33:29;;;;;;;5.20;3.20;;;17.70;98.70;;;;;;5008463;28;20400;-72
2022/10/06 00:35:57;;;;;;;4.95;2.90;;;17.70;98.80;;;;;;5034353;28;20048;-74
2022/10/06 00:38:26;;;;;;;9.90;2.83;;;17.70;98.90;;;;;;5049660;28;20499;-72
2022/10/06 00:40:54;;;;;;;4.28;2.22;;;17.70;99.00;;;;;;5051135;28;20036;-74
2022/10/06 00:43:45;;;;;;;3.53;2.42;;;17.80;99.10;;;;;;5066336;28;20182;-72
2022/10/06 00:46:33;;;;;;;4.05;2.30;;;17.70;99.10;;;;;;5064845;28;20483;-73
2022/10/06 00:49:16;;;;;;;5.70;2.30;;;17.80;99.20;;;;;;5008687;28;20506;-72
2022/10/06 00:52:01;;;;;;;5.70;2.25;;;17.80;99.20;;;;;;5001947;28;20141;-72
2022/10/06 00:54:31;;;;;;;3.50;2.35;;;17.80;99.30;;;;;;5030525;28;20056;-72
2022/10/06 00:56:58;;;;;;;4.93;2.22;;;17.80;99.30;;;;;;5026124;28;20487;-74
2022/10/06 00:59:26;;;;;;;3.70;1.88;;;17.90;99.40;;;;;;5003167;28;20056;-73
2022/10/06 01:02:14;;;;;;;3.63;2.05;;;17.90;99.40;;;;;;5042419;28;20465;-72
2022/10/06 01:04:48;;;;;;;5.85;2.42;;;17.90;99.50;;;;;;5043863;28;20103;-76
2022/10/06 01:07:20;;;;;;;4.97;2.03;;;17.90;99.50;;;;;;5048623;28;20123;-73
2022/10/06 01:09:48;;;;;;;3.40;2.15;;;17.90;99.50;;;;;;5062085;28;20040;-79
2022/10/06 01:12:16;;;;;;;5.68;2.00;;;17.90;99.40;;;;;;5020872;28;20057;-77
2022/10/06 01:14:43;;;;;;;3.72;2.08;;;18.00;99.40;;;;;;5050561;28;20048;-78
2022/10/06 01:17:35;;;;;;;3.47;2.30;;;18.00;99.40;;;;;;5027016;28;20403;-72
2022/10/06 01:20:08;;;;;;;4.50;2.50;;;18.00;99.40;;;;;;5035638;28;20056;-74
2022/10/06 01:22:40;;;;;;;5.75;2.20;;;18.00;99.40;;;;;;5050161;28;20135;-74
2022/10/06 01:25:09;;;;;;;3.78;2.13;;;18.00;99.40;;;;;;5033904;28;20518;-73
2022/10/06 01:27:40;;;;;;;3.88;2.15;;;18.00;99.40;;;;;;5004439;28;20144;-72
2022/10/06 01:30:15;;;;;;;6.28;2.40;;;18.00;99.50;;;;;;5052645;28;20037;-72
2022/10/06 01:32:44;;;;;;;2.85;1.70;;;18.00;99.60;;;;;;5027886;28;20679;-74
2022/10/06 01:35:12;;;;;;;3.67;2.15;;;17.90;99.50;;;;;;5041918;28;20423;-71
2022/10/06 01:37:39;;;;;;;3.85;2.17;;;17.90;99.50;;;;;;5048995;28;20040;-72
2022/10/06 01:40:08;;;;;;;4.70;2.20;;;17.90;99.60;;;;;;5022765;28;20593;-73
2022/10/06 01:42:36;;;;;;;4.28;2.38;;;17.90;99.70;;;;;;5006568;28;20056;-73
2022/10/06 01:45:06;;;;;;;3.47;1.80;;;17.90;99.80;;;;;;5032289;28;20044;-72
2022/10/06 01:47:34;;;;;;;4.53;2.00;;;17.80;99.80;;;;;;5016219;28;20509;-73
2022/10/06 01:50:05;;;;;;;4.10;2.25;;;17.80;99.90;;;;;;5032556;28;20603;-72
2022/10/06 01:52:35;;;;;;;7.72;2.25;;;17.80;99.90;;;;;;5017719;28;20500;-73
2022/10/06 01:55:05;;;;;;;5.18;2.33;;;17.70;99.90;;;;;;5029423;28;20148;-72
2022/10/06 01:57:41;;;;;;;3.72;2.30;;;17.70;99.90;;;;;;5021290;28;20049;-73
2022/10/06 02:00:12;;;;;;;4.65;2.33;;;17.70;99.90;;;;;;5025532;28;20057;-73
2022/10/06 02:02:42;;;;;;;3.45;2.30;;;17.70;99.90;;;;;;5029261;28;20499;-73
2022/10/06 02:05:10;;;;;;;2.42;1.40;;;17.70;99.90;;;;;;4997662;28;20084;-73
2022/10/06 02:07:41;;;;;;;4.47;2.03;;;17.70;99.90;;;;;;4998265;28;20379;-72
2022/10/06 02:10:12;;;;;;;4.10;2.15;;;17.70;99.90;;;;;;5030514;28;20045;-73
2022/10/06 02:12:41;;;;;;;5.25;2.70;;;17.70;99.90;;;;;;5048141;28;20142;-73
2022/10/06 02:15:09;;;;;;;2.38;1.70;;;17.70;99.90;;;;;;5013863;28;20450;-72
2022/10/06 02:17:37;;;;;;;3.17;2.10;;;17.70;99.90;;;;;;5031413;28;20071;-72
2022/10/06 02:20:05;;;;;;;3.42;1.90;;;17.70;99.90;;;;;;5030988;28;20094;-73
2022/10/06 02:22:38;;;;;;;4.40;2.08;;;17.70;99.90;;;;;;5041153;28;20471;-72
2022/10/06 02:25:06;;;;;;;4.05;2.15;;;17.70;99.90;;;;;;5014404;28;20570;-72
2022/10/06 02:27:36;;;;;;;3.63;2.22;;;17.70;99.90;;;;;;4997982;28;20053;-73
2022/10/06 02:30:06;;;;;;;6.53;2.58;;;17.70;99.90;;;;;;5030961;28;20049;-73
2022/10/06 02:32:37;;;;;;;3.42;2.15;;;17.60;99.90;;;;;;5047593;28;20052;-72
2022/10/06 02:35:08;;;;;;;3.20;1.80;;;17.70;99.90;;;;;;5047106;28;20081;-72
2022/10/06 02:37:36;;;;;;;3.85;2.58;;;17.70;99.90;;;;;;5014821;28;20171;-73
2022/10/06 02:40:06;;;;;;;2.25;1.67;;;17.60;99.90;;;;;;5018182;28;20048;-73
2022/10/06 02:42:37;;;;;;;2.78;1.60;;;17.70;99.90;;;;;;5050878;28;20055;-72
2022/10/06 02:45:07;;;;;;;3.65;1.63;;;17.60;99.90;;;;;;5034558;28;20060;-75
2022/10/06 02:47:36;;;;;;;3.60;2.20;;;17.60;99.90;;;;;;5050093;28;20063;-71
2022/10/06 02:50:06;;;;;;;3.85;1.77;;;17.60;99.90;;;;;;5017979;28;20040;-73
2022/10/06 02:52:37;;;;;;;3.28;2.13;;;17.60;99.90;;;;;;5034679;28;20051;-73
2022/10/06 02:55:05;;;;;;;5.20;2.10;;;17.60;99.90;;;;;;5050702;28;20139;-72
2022/10/06 02:57:33;;;;;;;5.57;2.10;;;17.60;99.90;;;;;;5033888;28;20407;-72
2022/10/06 03:00:01;;;;;;;3.50;2.40;;;17.60;99.90;;;;;;5050676;28;20067;-73
2022/10/06 03:02:33;;;;;;;4.07;1.77;;;17.60;99.90;;;;;;5002859;28;20152;-73
2022/10/06 03:05:01;;;;;;;2.55;1.65;;;17.50;99.90;;;;;;5030520;28;20081;-75
2022/10/06 03:07:29;;;;;;;4.75;2.13;;;17.60;99.90;;;;;;5013973;28;20057;-72
2022/10/06 03:09:57;;;;;;;4.80;2.08;;;17.50;99.90;;;;;;5030550;28;20048;-73
2022/10/06 03:12:26;;;;;;;3.60;2.25;;;17.50;99.90;;;;;;5030280;28;20589;-72
2022/10/06 03:14:53;;;;;;;3.20;1.75;;;17.50;99.90;;;;;;5048164;28;20045;-72
2022/10/06 03:17:22;;;;;;;4.47;2.35;;;17.50;99.90;;;;;;5046810;28;20037;-71
2022/10/06 03:19:55;;;;;;;4.40;2.47;;;17.50;99.90;;;;;;5030563;28;20041;-72
2022/10/06 03:22:24;;;;;;;4.05;2.10;;;17.50;99.90;;;;;;4997299;28;20507;-72
2022/10/06 03:24:54;;;;;;;3.88;2.35;;;17.50;99.90;;;;;;5014817;28;20053;-73
2022/10/06 03:27:22;;;;;;;3.75;1.98;;;17.50;99.90;;;;;;5013003;28;20056;-73
2022/10/06 03:29:54;;;;;;;5.82;2.25;;;17.50;99.90;;;;;;5013980;28;20056;-73
2022/10/06 03:32:23;;;;;;;3.78;1.90;;;17.50;99.90;;;;;;5030702;28;20055;-72
2022/10/06 03:34:52;;;;;;;3.42;1.90;;;17.50;99.90;;;;;;5042764;28;20418;-72
2022/10/06 03:37:20;;;;;;;3.47;1.90;;;17.50;99.90;;;;;;5033221;28;20102;-73
2022/10/06 03:39:48;;;;;;;8.45;2.30;;;17.50;99.90;;;;;;5032283;28;20780;-71
2022/10/06 03:42:16;;;;;;;5.03;1.90;;;17.40;99.90;;;;;;5049689;28;20094;-73
2022/10/06 03:44:45;;;;;;;4.75;1.85;;;17.40;99.90;;;;;;5034063;28;20049;-72
2022/10/06 03:47:13;;;;;;;4.97;2.42;;;17.40;99.90;;;;;;5033713;28;20044;-73
2022/10/06 03:49:43;;;;;;;5.22;2.15;;;17.40;99.90;;;;;;5050488;28;20063;-73
2022/10/06 03:52:12;;;;;;;2.72;1.90;;;17.40;99.90;;;;;;5050359;28;20068;-72
2022/10/06 03:54:40;;;;;;;2.67;1.80;;;17.40;99.90;;;;;;5052877;28;20128;-73
2022/10/06 03:57:08;;;;;;;2.42;1.73;;;17.40;99.90;;;;;;5053251;28;20040;-71
2022/10/06 03:59:36;;;;;;;4.72;2.28;;;17.40;99.90;;;;;;5037724;28;20045;-72
2022/10/06 04:02:05;;;;;;;6.18;2.10;;;17.40;99.90;;;;;;5021319;28;20139;-71
2022/10/06 04:04:37;;;;;;;5.03;1.83;;;17.40;99.90;;;;;;5053713;28;20114;-72
2022/10/06 04:07:10;;;;;;;3.80;1.70;;;17.30;99.90;;;;;;5036431;28;20402;-74
2022/10/06 04:09:38;;;;;;;3.50;1.80;;;17.30;99.90;;;;;;5037076;28;20044;-72
2022/10/06 04:12:08;;;;;;;3.42;1.75;;;17.40;99.90;;;;;;5021015;28;20059;-72
2022/10/06 04:14:37;;;;;;;4.60;2.20;;;17.30;99.90;;;;;;5070215;28;20507;-73
2022/10/06 04:17:06;;;;;;;9.05;2.72;;;17.40;99.90;;;;;;5020151;28;20060;-72
2022/10/06 04:19:36;;;;;;;3.95;2.10;;;17.30;99.90;;;;;;5020967;28;20052;-72
2022/10/06 04:22:04;;;;;;;4.85;1.67;;;17.30;99.90;;;;;;5036515;28;20056;-71
2022/10/06 04:24:33;;;;;;;5.20;2.85;;;17.30;99.90;;;;;;5020842;28;20229;-74
2022/10/06 04:29:56;;;;;;;3.42;2.10;;;17.40;99.90;;;;;;5053070;28;20656;-72
2022/10/06 04:32:24;;;;;;;5.43;2.45;;;17.30;99.90;;;;;;5015841;28;20041;-73
2022/10/06 04:34:52;;;;;;;4.68;2.17;;;17.30;99.90;;;;;;5033288;28;20057;-73
2022/10/06 04:37:21;;;;;;;6.03;2.30;;;17.30;99.90;;;;;;5000484;28;20060;-72
2022/10/06 04:39:49;;;;;;;6.88;2.60;;;17.30;99.90;;;;;;5032910;28;20068;-72
2022/10/06 04:42:18;;;;;;;2.80;1.73;;;17.30;99.90;;;;;;5033144;28;20055;-71
2022/10/06 04:44:46;;;;;;;7.00;2.88;;;17.20;99.90;;;;;;5033125;28;20033;-72
2022/10/06 04:47:13;;;;;;;3.83;2.00;;;17.30;99.90;;;;;;5032712;28;20131;-72
2022/10/06 04:49:41;;;;;;;4.93;2.15;;;17.30;99.90;;;;;;5032864;28;20045;-72
2022/10/06 04:52:09;;;;;;;2.90;1.92;;;17.20;99.90;;;;;;5032689;28;20501;-71
2022/10/06 04:54:38;;;;;;;5.13;2.50;;;17.20;99.90;;;;;;5016124;28;20057;-73
2022/10/06 04:57:07;;;;;;;4.75;2.10;;;17.20;99.90;;;;;;5015884;28;20053;-72
2022/10/06 05:02:22;;;;;;;5.57;2.83;;;17.20;99.90;;;;;;5015481;28;20057;-71
2022/10/06 05:04:53;;;;;;;5.47;2.90;;;17.20;99.90;;;;;;5015058;28;20068;-72
2022/10/06 05:07:22;;;;;;;4.93;2.90;;;17.30;99.90;;;;;;4999970;28;20037;-72
2022/10/06 05:09:51;;;;;;;5.25;2.92;;;17.30;99.90;;;;;;5000100;28;20052;-71
2022/10/06 05:12:19;;;;;;;4.55;3.10;;;17.40;99.90;;;;;;5014516;28;20049;-73
2022/10/06 05:14:47;;;;;;;5.35;4.10;;;17.50;99.90;;;;;;5032920;28;20056;-72
2022/10/06 05:17:16;;;;;;;8.18;3.47;;;17.50;99.90;;;;;;5015767;28;20056;-71
2022/10/06 05:19:45;;;;;;;6.80;3.03;;;17.60;99.90;;;;;;5016275;28;20044;-72
2022/10/06 05:22:12;;;;;;;6.32;2.65;;;17.60;99.90;;;;;;5032277;28;20406;-72
2022/10/06 05:24:40;;;;;;;3.30;2.20;;;17.60;99.90;;;;;;5032676;28;20794;-71
2022/10/06 05:27:08;;;;;;;6.70;2.65;;;17.60;99.90;;;;;;5041371;28;20151;-72
2022/10/06 05:29:36;;;;;;;3.22;1.83;;;17.60;99.90;;;;;;5032532;28;20490;-72
2022/10/06 05:32:06;;;;;;;4.35;2.50;;;17.70;99.90;;;;;;5032387;28;20171;-74
2022/10/06 05:34:36;;;;;;;4.15;2.38;;;17.70;99.90;;;;;;5031908;28;20107;-73
2022/10/06 05:37:04;;;;;;;7.53;2.20;;;17.80;99.90;;;;;;4998724;28;20041;-74
2022/10/06 05:39:33;;;;;;;4.45;2.97;;;17.80;99.90;;;;;;5028489;28;20060;-74
2022/10/06 05:42:01;;;;;;;5.90;2.40;;;17.90;99.90;;;;;;5028447;28;20055;-72
2022/10/06 05:44:29;;;;;;;3.92;2.30;;;18.00;99.90;;;;;;5031649;28;20063;-71
2022/10/06 05:46:59;;;;;;;3.67;1.83;;;18.10;99.90;;;;;;5031128;28;20049;-72
2022/10/06 05:49:28;;;;;;;3.60;2.42;;;18.20;99.90;;;;;;5031364;28;20052;-72
2022/10/06 05:51:59;;;;;;;5.93;2.25;;;18.20;99.90;;;;;;5031665;28;20559;-73
2022/10/06 05:54:30;;;;;;;5.13;2.20;;;18.30;99.90;;;;;;5015562;28;20106;-74
2022/10/06 05:56:57;;;;;;;3.70;2.30;;;18.40;99.90;;;;;;5030897;28;20131;-73
2022/10/06 05:59:25;;;;;;;6.63;2.97;;;18.50;99.90;;;;;;5047658;28;20492;-73
2022/10/06 06:01:55;;;;;;;4.82;2.17;;;18.60;99.90;;;;;;5015042;28;20073;-72
2022/10/06 06:04:36;;;;;;;5.40;2.95;;;18.70;99.90;;;;;;5031082;28;20055;-72
2022/10/06 06:07:05;;;;;;;4.38;2.80;;;18.80;99.90;;;;;;5031075;28;20040;-71
2022/10/06 06:09:33;;;;;;;5.43;2.60;;;18.90;99.90;;;;;;5014796;28;20074;-73
2022/10/06 06:12:03;;;;;;;7.13;2.70;;;19.00;99.90;;;;;;5047909;28;20147;-71
2022/10/06 06:17:55;;;;;;;7.03;2.85;;;19.20;99.90;;;;;;5027332;28;20010;-72
2022/10/06 06:20:24;;;;;;;4.55;2.65;;;19.30;99.90;;;;;;4996677;28;20085;-72
2022/10/06 06:22:52;;;;;;;4.05;2.47;;;19.40;99.90;;;;;;5047291;28;20488;-73
2022/10/06 06:25:24;;;;;;;3.60;2.55;;;19.60;99.90;;;;;;5034599;28;20822;-72
2022/10/06 06:27:54;;;;;;;4.30;2.50;;;19.70;99.90;;;;;;5034101;28;20502;-74
2022/10/06 06:30:23;;;;;;;6.18;2.78;;;19.90;99.90;;;;;;5050663;28;20060;-72
2022/10/06 06:32:56;;;;;;;4.70;3.08;;;20.10;99.90;;;;;;5050070;28;20032;-72
2022/10/06 06:35:24;;;;;;;6.13;2.55;;;20.20;99.90;;;;;;5050536;28;20052;-74
2022/10/06 06:37:52;;;;;;;5.65;2.88;;;20.40;99.90;;;;;;5034139;28;20494;-72
2022/10/06 06:40:20;;;;;;;4.68;2.58;;;20.50;99.90;;;;;;5033695;28;20378;-72
2022/10/06 06:42:48;;;;;;;4.70;2.88;;;20.60;99.90;;;;;;5034259;28;20052;-74
2022/10/06 06:45:20;;;;;;;4.78;2.42;;;20.80;99.90;;;;;;5050976;28;20505;-74
2022/10/06 06:48:15;;;;;;;6.05;2.92;;;21.00;99.90;;;;;;5037220;28;20048;-75
2022/10/06 06:50:55;;;;;;;7.38;3.22;;;21.20;99.90;;;;;;5046790;28;20037;-73
2022/10/06 06:53:24;;;;;;;7.18;2.58;;;21.40;99.90;;;;;;5031158;28;20064;-72
2022/10/06 06:55:56;;;;;;;8.77;3.97;;;21.50;99.70;;;;;;5030724;28;20060;-73
2022/10/06 06:58:24;;;;;;;4.18;2.65;;;21.70;99.50;;;;;;5014544;28;20051;-72
2022/10/06 07:00:52;;;;;;;6.20;3.38;;;21.80;99.30;;;;;;5030473;28;20132;-74
2022/10/06 07:03:21;;;;;;;6.65;2.47;;;21.90;99.30;;;;;;5013865;28;20471;-72
2022/10/06 07:06:12;;;;;;;3.67;2.42;;;21.90;99.40;;;;;;5016759;28;20487;-73
2022/10/06 07:08:42;;;;;;;4.93;2.70;;;21.90;99.50;;;;;;5041645;28;20071;-72
2022/10/06 07:11:28;;;;;;;8.63;3.22;;;21.90;99.50;;;;;;5026364;28;20064;-72
2022/10/06 07:14:02;;;;;;;5.97;3.42;;;21.90;99.30;;;;;;5030647;28;20450;-73
2022/10/06 07:25:22;;;;;;;4.88;2.20;;;21.90;97.50;;;;;;4983649;28;20115;-81
2022/10/06 07:28:05;;;;;;;4.38;2.20;;;22.00;97.20;;;;;;5011910;28;20051;-74
2022/10/06 07:30:38;;;;;;;5.28;2.53;;;22.20;96.90;;;;;;5037793;28;20064;-73
2022/10/06 07:33:14;;;;;;;7.80;2.45;;;22.40;96.60;;;;;;5034613;28;20065;-72
2022/10/06 07:35:45;;;;;;;4.22;2.08;;;22.60;96.20;;;;;;5042661;28;20059;-74
2022/10/06 07:38:23;;;;;;;5.05;2.53;;;22.80;95.80;;;;;;5052106;28;20043;-73
2022/10/06 07:40:57;;;;;;;5.50;2.15;;;22.90;96.00;;;;;;5052699;28;20044;-72
2022/10/06 07:43:41;;;;;;;3.67;2.08;;;23.10;96.10;;;;;;5055683;28;20052;-72
2022/10/06 07:46:11;;;;;;;4.70;2.53;;;23.20;96.10;;;;;;5024114;28;20067;-75
2022/10/06 07:48:47;;;;;;;4.13;2.03;;;23.20;96.30;;;;;;5028772;28;20049;-72
2022/10/06 07:51:18;;;;;;;5.88;2.33;;;23.30;96.10;;;;;;5036427;28;20052;-78
2022/10/06 07:53:49;;;;;;;5.55;2.78;;;23.40;96.20;;;;;;5021777;28;20033;-77
2022/10/06 07:56:38;;;;;;;3.78;2.50;;;23.50;96.20;;;;;;5031333;28;20040;-72
2022/10/06 07:59:06;;;;;;;3.70;2.45;;;23.50;96.20;;;;;;5046290;28;20046;-73
2022/10/06 08:01:33;;;;;;;3.90;2.33;;;23.50;96.40;;;;;;5050794;28;20495;-76
2022/10/06 08:04:05;;;;;;;5.45;3.35;;;23.60;96.60;;;;;;5033167;28;20077;-73
2022/10/06 08:06:34;;;;;;;7.88;3.85;;;23.70;96.20;;;;;;5033304;28;20053;-72
2022/10/06 08:09:01;;;;;;;12.35;3.50;;;23.90;95.90;;;;;;5030541;28;20498;-71
2022/10/06 08:11:29;;;;;;;7.30;3.25;;;24.00;96.10;;;;;;5000320;28;20049;-74
2022/10/06 08:13:58;;;;;;;4.60;3.10;;;24.10;96.20;;;;;;5033135;28;20060;-75
2022/10/06 08:16:29;;;;;;;6.38;2.90;;;24.10;96.30;;;;;;5000268;28;20056;-77
2022/10/06 08:18:58;;;;;;;9.52;4.25;;;24.00;96.30;;;;;;5000088;28;20084;-73
2022/10/06 08:21:29;;;;;;;7.07;3.42;;;23.90;96.70;;;;;;5033265;28;20076;-73
2022/10/06 08:23:58;;;;;;;5.20;3.42;;;24.00;96.80;;;;;;5017023;28;20367;-72
2022/10/06 08:26:27;;;;;;;5.63;3.50;;;24.00;96.80;;;;;;5016439;28;20524;-72
2022/10/06 08:29:01;;;;;;;6.28;3.60;;;24.00;96.90;;;;;;5016288;28;20057;-73
2022/10/06 08:31:29;;;;;;;8.18;4.03;;;24.10;97.00;;;;;;5033309;28;20080;-73
2022/10/06 08:33:57;;;;;;;5.72;3.70;;;23.90;96.80;;;;;;5033164;28;20076;-73
2022/10/06 08:36:27;;;;;;;5.20;3.20;;;23.70;96.80;;;;;;5032621;28;20041;-72
2022/10/06 08:38:57;;;;;;;5.00;3.55;;;23.80;96.80;;;;;;5032898;28;20127;-75
2022/10/06 08:41:47;;;;;;;7.50;3.22;;;23.80;96.60;;;;;;5050040;28;20045;-72
2022/10/06 08:44:19;;;;;;;8.80;4.10;;;23.80;96.60;;;;;;5050769;28;20044;-73
2022/10/06 08:47:10;;;;;;;6.57;3.42;;;24.00;96.60;;;;;;5033211;28;20091;-73
2022/10/06 08:49:49;;;;;;;5.38;3.63;;;24.10;96.20;;;;;;5032740;28;20123;-73
2022/10/06 08:52:36;;;;;;;5.07;3.17;;;24.20;95.30;;;;;;5030645;28;20067;-72
2022/10/06 08:55:22;;;;;;;4.97;2.97;;;24.20;95.30;;;;;;5016350;28;20075;-72
2022/10/06 08:57:59;;;;;;;7.28;3.28;;;24.20;95.40;;;;;;5016335;28;20075;-72
2022/10/06 09:00:32;;;;;;;5.45;3.85;;;24.10;95.00;;;;;;5016791;28;20136;-72
2022/10/06 09:03:01;;;;;;;4.20;2.95;;;23.90;95.00;;;;;;5050210;28;20069;-72
2022/10/06 09:05:30;;;;;;;4.68;2.90;;;24.10;95.10;;;;;;5016119;28;20048;-72
2022/10/06 09:08:13;;;;;;;7.15;2.83;;;24.10;94.90;;;;;;5027535;28;20041;-72
2022/10/06 09:11:06;;;;;;;4.40;2.65;;;24.30;94.80;;;;;;5031327;28;20072;-73
2022/10/06 09:13:44;;;;;;;3.42;2.40;;;24.30;94.60;;;;;;5032002;28;20052;-72
2022/10/06 09:16:17;;;;;;;4.95;3.03;;;24.40;94.10;;;;;;5049384;28;20183;-74
2022/10/06 09:18:51;;;;;;;6.05;3.33;;;24.30;94.10;;;;;;5051146;28;20213;-73
2022/10/06 09:21:41;;;;;;;6.35;3.22;;;24.30;93.80;;;;;;5054044;28;20055;-73
2022/10/06 09:24:28;;;;;;;5.18;2.80;;;24.30;93.70;;;;;;5051186;28;20049;-73
2022/10/06 09:26:57;;;;;;;3.97;2.67;;;24.40;93.50;;;;;;5069021;28;20048;-80
2022/10/06 09:29:30;;;;;;;3.50;2.33;;;24.30;93.00;;;;;;5069132;28;20505;-73
2022/10/06 09:32:01;;;;;;;4.75;2.83;;;24.30;92.50;;;;;;5069658;28;20406;-73
2022/10/06 09:34:58;;;;;;;4.85;2.40;;;24.20;92.40;;;;;;5051458;28;20047;-73
2022/10/06 09:37:26;;;;;;;;;;;24.10;92.20;;;;;;5051869;28;20055;-73
2022/10/06 09:39:54;;;;;;;4.63;2.85;;;24.30;92.50;;;;;;5050726;28;19978;-73
2022/10/06 09:42:22;;;;;;;7.22;3.53;;;24.20;92.30;;;;;;5034138;28;20041;-73
2022/10/06 09:44:52;;;;;;;4.07;2.63;;;24.20;92.40;;;;;;5051110;28;20499;-73
2022/10/06 09:47:33;;;;;;;6.20;3.28;;;24.10;92.70;;;;;;5034359;28;20165;-73
2022/10/06 09:50:11;;;;;;;4.28;3.00;;;24.10;92.30;;;;;;5051520;28;20044;-72
2022/10/06 09:53:03;;;;;;;6.05;2.45;;;24.10;92.30;;;;;;5049803;28;20060;-72
2022/10/06 09:55:37;;;;;;;5.53;2.67;;;23.90;92.60;;;;;;5044597;28;20352;-73
2022/10/06 09:58:22;;;;;;;5.63;2.75;;;24.00;92.90;;;;;;5034539;28;20147;-74
2022/10/06 10:01:00;;;;;;;5.28;2.80;;;24.10;92.60;;;;;;5068671;28;20036;-73
2022/10/06 10:03:51;;;;;;;4.07;2.50;;;24.30;92.50;;;;;;5068243;28;20072;-72
2022/10/06 10:06:39;;;;;;;4.35;2.60;;;24.20;92.30;;;;;;5053555;28;20037;-73
2022/10/06 10:09:20;;;;;;;3.30;2.53;;;24.20;92.80;;;;;;5050434;28;20131;-72
2022/10/06 10:12:31;;;;;;;4.18;3.00;;;24.10;92.80;;;;;;5050651;28;20394;-72
2022/10/06 10:15:03;;;;;;;5.57;2.90;;;24.00;92.60;;;;;;5018083;28;20110;-72
2022/10/06 10:17:52;;;;;;;5.72;3.05;;;24.00;92.50;;;;;;5033672;28;20087;-72
2022/10/06 10:20:39;;;;;;;4.13;2.60;;;24.00;92.70;;;;;;5049995;28;20036;-72
2022/10/06 10:23:24;;;;;;;7.20;3.00;;;23.90;93.00;;;;;;5050357;28;20474;-76
2022/10/06 10:26:16;;;;;;;3.80;2.55;;;24.10;93.40;;;;;;5050594;28;20507;-72
2022/10/06 10:29:16;;;;;;;5.97;2.53;;;24.20;93.10;;;;;;5033869;28;20451;-72
2022/10/06 10:32:11;;;;;;;6.53;2.42;;;24.30;93.20;;;;;;5050459;28;20445;-72
2022/10/06 10:34:42;;;;;;;6.05;2.50;;;24.20;92.80;;;;;;5067551;28;20056;-75
2022/10/06 10:37:15;;;;;;;4.57;2.30;;;24.10;93.20;;;;;;5017378;28;20056;-73
2022/10/06 10:39:58;;;;;;;4.78;3.10;;;24.00;93.60;;;;;;5049788;28;20102;-72
2022/10/06 10:42:33;;;;;;;3.97;2.97;;;24.00;93.40;;;;;;5033136;28;20080;-72
2022/10/06 10:45:10;;;;;;;4.77;3.47;;;24.00;93.20;;;;;;5049997;28;20049;-73
2022/10/06 10:47:43;;;;;;;12.90;3.55;;;24.00;93.40;;;;;;5049044;28;20285;-79
2022/10/06 10:50:23;;;;;;;6.78;2.45;;;24.10;93.10;;;;;;5048349;28;20040;-75
2022/10/06 10:52:57;;;;;;;4.65;2.40;;;24.10;92.30;;;;;;5050719;28;20083;-72
2022/10/06 10:55:34;;;;;;;5.18;2.40;;;24.10;92.00;;;;;;5017604;28;20165;-73
2022/10/06 10:58:26;;;;;;;4.20;2.55;;;24.20;91.90;;;;;;5050821;28;20134;-73
2022/10/06 11:01:24;;;;;;;3.67;2.50;;;24.20;91.80;;;;;;5050994;28;20041;-73
2022/10/06 11:03:58;;;;;;;4.45;2.45;;;24.40;91.60;;;;;;5036215;28;20048;-74
2022/10/06 11:06:41;;;;;;;5.00;2.63;;;24.40;91.50;;;;;;5021675;28;20494;-72
2022/10/06 11:09:12;;;;;;;3.70;2.30;;;24.40;91.30;;;;;;5054709;28;20077;-72
2022/10/06 11:12:07;;;;;;;3.15;2.10;;;24.40;90.80;;;;;;5021323;28;20137;-74
2022/10/06 11:14:54;;;;;;;4.35;2.47;;;24.40;91.30;;;;;;5054487;28;20045;-72
2022/10/06 11:17:45;;;;;;;5.05;2.55;;;24.40;91.00;;;;;;5037415;28;20041;-75
2022/10/06 11:20:43;;;;;;;6.28;2.75;;;24.20;91.20;;;;;;5036838;28;20040;-73
2022/10/06 11:23:49;;;;;;;4.88;2.20;;;24.10;91.20;;;;;;5037491;28;20040;-72
2022/10/06 11:26:20;;;;;;;4.03;2.40;;;24.10;91.60;;;;;;4955131;28;20501;-73
2022/10/06 11:29:14;;;;;;;4.75;3.53;;;24.10;91.60;;;;;;5057033;28;20123;-72
2022/10/06 11:31:57;;;;;;;10.18;6.10;;;24.10;91.70;;;;;;5037600;28;20095;-75
2022/10/06 11:34:25;;;;;;;6.80;3.90;;;24.10;91.40;;;;;;5053828;28;20128;-73
2022/10/06 11:37:11;;;;;;;7.35;4.03;;;24.00;90.90;;;;;;5020743;28;20139;-72
2022/10/06 11:40:30;;;;;;;5.60;3.20;;;24.10;91.70;;;;;;5060177;28;20045;-75
2022/10/06 11:43:19;;;;;;;5.95;3.35;;;24.10;91.60;;;;;;5018741;28;20471;-72
2022/10/06 11:46:05;;;;;;;5.63;2.40;;;24.10;91.30;;;;;;5038515;28;20134;-75
2022/10/06 11:48:33;;;;;;;5.00;2.65;;;24.00;91.80;;;;;;5020848;28;20076;-74
2022/10/06 11:51:23;;;;;;;5.30;2.30;;;24.10;92.10;;;;;;5037560;28;20051;-71
2022/10/06 11:53:51;;;;;;;4.35;2.25;;;24.10;91.80;;;;;;5054311;28;20047;-73
2022/10/06 11:56:19;;;;;;;5.75;2.90;;;24.10;91.30;;;;;;5055302;28;20041;-73
2022/10/06 11:58:53;;;;;;;6.60;2.53;;;24.10;91.20;;;;;;5053532;28;20147;-73
2022/10/06 12:01:30;;;;;;;5.85;2.80;;;24.10;91.40;;;;;;5053850;28;20122;-74
2022/10/06 12:04:18;;;;;;;4.68;2.42;;;24.10;91.20;;;;;;5037703;28;20745;-71
2022/10/06 12:06:49;;;;;;;5.63;2.40;;;24.10;91.20;;;;;;5040263;28;20119;-72
2022/10/06 12:09:29;;;;;;;11.52;8.35;;;24.20;91.10;;;;;;5031595;28;20041;-72
2022/10/06 12:12:25;;;;;;;8.75;5.63;;;24.10;90.70;;;;;;5038733;28;20041;-73
2022/10/06 12:14:55;;;;;;;24.60;17.05;;;24.10;90.20;;;;;;5053836;28;20151;-73
2022/10/06 12:18:26;;;;;;;9.20;6.28;;;24.00;90.20;;;;;;5020860;28;20098;-73
2022/10/06 12:21:30;;;;;;;5.22;3.22;;;23.80;90.30;;;;;;5056152;28;20071;-73
2022/10/06 12:24:19;;;;;;;6.45;3.17;;;23.70;90.30;;;;;;5052930;28;20048;-73
2022/10/06 12:26:53;;;;;;;3.88;2.10;;;23.70;90.20;;;;;;5053497;28;20040;-73
2022/10/06 12:29:46;;;;;;;3.80;1.90;;;23.70;90.50;;;;;;5052380;28;20041;-75
2022/10/06 12:32:53;;;;;;;3.33;2.25;;;23.60;91.00;;;;;;5033723;28;20045;-73
2022/10/06 12:35:39;;;;;;;4.13;2.60;;;23.50;91.20;;;;;;5009957;28;20142;-73
2022/10/06 12:38:32;;;;;;;4.90;2.17;;;23.50;90.90;;;;;;5014324;28;20055;-73
2022/10/06 12:41:01;;;;;;;4.40;2.58;;;23.50;91.10;;;;;;5045453;28;20119;-73
2022/10/06 12:43:32;;;;;;;5.32;2.55;;;23.50;91.40;;;;;;5032755;28;20048;-73
2022/10/06 12:46:06;;;;;;;3.22;2.00;;;23.50;90.70;;;;;;5037189;28;20113;-74
2022/10/06 12:49:11;;;;;;;3.72;2.10;;;23.50;91.10;;;;;;5031663;28;20041;-73
2022/10/06 12:51:41;;;;;;;5.40;2.60;;;23.40;91.50;;;;;;5036737;28;20059;-73
2022/10/06 12:54:30;;;;;;;5.43;2.10;;;23.40;91.50;;;;;;5050526;28;20060;-73
2022/10/06 12:57:00;;;;;;;3.72;2.10;;;23.40;91.60;;;;;;5051996;28;20040;-73
2022/10/06 12:59:31;;;;;;;2.83;1.70;;;23.40;92.10;;;;;;5046690;28;20048;-73
2022/10/06 13:02:03;;;;;;;5.10;2.00;;;23.30;92.20;;;;;;5053850;28;20136;-73
2022/10/06 13:04:52;;;;;;;7.25;2.60;;;23.30;92.40;;;;;;5035180;28;20485;-74
2022/10/06 13:07:21;;;;;;;3.65;1.92;;;23.30;92.20;;;;;;5031853;28;20467;-73
2022/10/06 13:09:52;;;;;;;5.93;2.42;;;23.20;92.20;;;;;;5057737;28;20142;-73
2022/10/06 13:12:22;;;;;;;4.28;1.85;;;23.30;91.90;;;;;;5068231;28;20039;-77
2022/10/06 13:15:19;;;;;;;4.50;1.83;;;23.20;91.50;;;;;;5068251;28;20107;-73
2022/10/06 13:17:54;;;;;;;3.88;2.13;;;23.10;91.80;;;;;;5035238;28;20072;-74
2022/10/06 13:20:42;;;;;;;2.92;2.00;;;23.10;91.80;;;;;;5037142;28;20050;-73
2022/10/06 13:23:31;;;;;;;7.13;2.25;;;23.10;92.10;;;;;;5069441;28;20036;-73
2022/10/06 13:26:06;;;;;;;3.22;2.03;;;23.10;92.50;;;;;;5046777;28;20091;-72
2022/10/06 13:28:43;;;;;;;4.78;2.53;;;23.10;92.20;;;;;;5038549;28;20037;-73
2022/10/06 13:31:26;;;;;;;4.53;2.38;;;23.00;91.70;;;;;;5052636;28;20041;-73
2022/10/06 13:34:04;;;;;;;4.25;2.10;;;22.90;91.50;;;;;;5042580;28;20045;-72
2022/10/06 13:36:41;;;;;;;4.07;2.58;;;22.90;91.60;;;;;;5007774;28;20048;-72
2022/10/06 13:39:19;;;;;;;6.80;2.00;;;22.80;91.70;;;;;;5070640;28;20115;-73
2022/10/06 13:41:53;;;;;;;4.72;2.08;;;22.90;91.60;;;;;;5037594;28;20048;-74
2022/10/06 13:44:41;;;;;;;3.60;1.90;;;22.80;91.70;;;;;;5044980;28;20037;-74